sensor_id;sensor_type;location;lat;lon;timestamp;pressure;altitude;pressure_sealevel;temperature;humidity
45327;BME280;31062;49.678;24.560;2022-07-23T00:02:08;98314.66;;;21.63;66.23
45327;BME280;31062;49.678;24.560;2022-07-23T00:04:54;98132.88;;;20.47;66.24
45327;BME280;31062;49.678;24.560;2022-07-23T00:07:39;98122.47;;;20.32;66.47
45327;BME280;31062;49.678;24.560;2022-07-23T00:10:25;98136.84;;;20.40;66.90
45327;BME280;31062;49.678;24.560;2022-07-23T00:13:10;98298.28;;;21.39;67.14
45327;BME280;31062;49.678;24.560;2022-07-23T00:15:55;98306.09;;;21.41;67.24
45327;BME280;31062;49.678;24.560;2022-07-23T00:18:41;98176.50;;;20.46;67.53
45327;BME280;31062;49.678;24.560;2022-07-23T00:21:26;98293.38;;;21.20;67.90
45327;BME280;31062;49.678;24.560;2022-07-23T00:24:12;98293.31;;;21.00;68.58
45327;BME280;31062;49.678;24.560;2022-07-23T00:26:57;98297.34;;;20.95;68.68
45327;BME280;31062;49.678;24.560;2022-07-23T00:29:42;98296.00;;;20.96;68.34
45327;BME280;31062;49.678;24.560;2022-07-23T00:32:28;98293.91;;;20.97;67.91
45327;BME280;31062;49.678;24.560;2022-07-23T00:35:36;98289.63;;;20.96;67.72
45327;BME280;31062;49.678;24.560;2022-07-23T00:38:22;98287.94;;;20.89;67.94
45327;BME280;31062;49.678;24.560;2022-07-23T00:41:07;98137.47;;;19.83;68.05
45327;BME280;31062;49.678;24.560;2022-07-23T00:43:52;98173.31;;;20.01;68.12
45327;BME280;31062;49.678;24.560;2022-07-23T00:46:38;98142.91;;;19.79;68.35
45327;BME280;31062;49.678;24.560;2022-07-23T00:49:26;98322.34;;;20.85;68.62
45327;BME280;31062;49.678;24.560;2022-07-23T00:52:12;98207.84;;;20.21;68.76
45327;BME280;31062;49.678;24.560;2022-07-23T00:54:57;98217.69;;;20.20;69.00
45327;BME280;31062;49.678;24.560;2022-07-23T00:57:43;98281.84;;;20.76;68.35
45327;BME280;31062;49.678;24.560;2022-07-23T01:00:29;98125.50;;;19.65;68.40
45327;BME280;31062;49.678;24.560;2022-07-23T01:03:14;98282.56;;;20.77;68.60
45327;BME280;31062;49.678;24.560;2022-07-23T01:06:00;98120.66;;;19.68;68.52
45327;BME280;31062;49.678;24.560;2022-07-23T01:08:46;98248.66;;;20.55;68.43
45327;BME280;31062;49.678;24.560;2022-07-23T01:11:33;98128.31;;;19.65;68.31
45327;BME280;31062;49.678;24.560;2022-07-23T01:14:19;98275.91;;;20.68;68.28
45327;BME280;31062;49.678;24.560;2022-07-23T01:17:05;98269.53;;;20.68;68.33
45327;BME280;31062;49.678;24.560;2022-07-23T01:19:50;98289.91;;;20.66;68.29
45327;BME280;31062;49.678;24.560;2022-07-23T01:22:35;98257.25;;;20.59;68.18
45327;BME280;31062;49.678;24.560;2022-07-23T01:25:21;98177.50;;;20.00;68.27
45327;BME280;31062;49.678;24.560;2022-07-23T01:28:14;98133.19;;;19.65;68.58
45327;BME280;31062;49.678;24.560;2022-07-23T01:30:59;98112.06;;;19.46;68.77
45327;BME280;31062;49.678;24.560;2022-07-23T01:33:49;98092.84;;;19.40;68.18
45327;BME280;31062;49.678;24.560;2022-07-23T01:36:36;98268.91;;;20.52;67.92
45327;BME280;31062;49.678;24.560;2022-07-23T01:39:21;98265.13;;;20.45;68.10
45327;BME280;31062;49.678;24.560;2022-07-23T01:42:09;98258.00;;;20.42;68.40
45327;BME280;31062;49.678;24.560;2022-07-23T01:44:55;98266.25;;;20.38;68.70
45327;BME280;31062;49.678;24.560;2022-07-23T01:47:40;98092.56;;;19.16;68.81
45327;BME280;31062;49.678;24.560;2022-07-23T01:50:25;98106.84;;;19.23;68.75
45327;BME280;31062;49.678;24.560;2022-07-23T01:53:30;98114.09;;;19.28;68.68
45327;BME280;31062;49.678;24.560;2022-07-23T01:56:16;98262.66;;;20.35;68.69
45327;BME280;31062;49.678;24.560;2022-07-23T01:59:01;98108.47;;;19.28;68.68
45327;BME280;31062;49.678;24.560;2022-07-23T02:01:48;98230.84;;;19.97;68.71
45327;BME280;31062;49.678;24.560;2022-07-23T02:04:36;98109.03;;;19.24;69.04
45327;BME280;31062;49.678;24.560;2022-07-23T02:07:22;98098.72;;;19.13;68.76
45327;BME280;31062;49.678;24.560;2022-07-23T02:10:09;98266.03;;;20.32;69.54
45327;BME280;31062;49.678;24.560;2022-07-23T02:12:55;98235.03;;;19.96;68.50
45327;BME280;31062;49.678;24.560;2022-07-23T02:15:41;98102.69;;;19.24;68.08
45327;BME280;31062;49.678;24.560;2022-07-23T02:18:26;98085.84;;;19.24;67.72
45327;BME280;31062;49.678;24.560;2022-07-23T02:21:12;98036.00;;;18.91;67.49
45327;BME280;31062;49.678;24.560;2022-07-23T02:23:58;98104.63;;;19.37;67.99
45327;BME280;31062;49.678;24.560;2022-07-23T02:26:43;98083.66;;;19.22;68.14
45327;BME280;31062;49.678;24.560;2022-07-23T02:29:29;98084.03;;;19.14;68.28
45327;BME280;31062;49.678;24.560;2022-07-23T02:32:15;98111.53;;;19.34;68.11
45327;BME280;31062;49.678;24.560;2022-07-23T02:35:03;98213.81;;;19.93;68.42
45327;BME280;31062;49.678;24.560;2022-07-23T02:37:49;98131.13;;;19.32;68.19
45327;BME280;31062;49.678;24.560;2022-07-23T02:40:35;98252.41;;;20.09;68.39
45327;BME280;31062;49.678;24.560;2022-07-23T02:43:21;98202.38;;;19.54;68.44
45327;BME280;31062;49.678;24.560;2022-07-23T02:46:07;98258.50;;;19.85;69.02
45327;BME280;31062;49.678;24.560;2022-07-23T02:48:53;98118.94;;;18.76;68.85
45327;BME280;31062;49.678;24.560;2022-07-23T02:51:39;98294.81;;;19.79;68.77
45327;BME280;31062;49.678;24.560;2022-07-23T02:54:25;98256.00;;;19.76;68.90
45327;BME280;31062;49.678;24.560;2022-07-23T02:57:11;98255.00;;;19.69;69.26
45327;BME280;31062;49.678;24.560;2022-07-23T02:59:56;98266.41;;;19.73;69.17
45327;BME280;31062;49.678;24.560;2022-07-23T03:02:41;98108.63;;;18.65;68.87
45327;BME280;31062;49.678;24.560;2022-07-23T03:05:27;98275.59;;;19.74;68.47
45327;BME280;31062;49.678;24.560;2022-07-23T03:08:12;98140.66;;;18.91;69.16
45327;BME280;31062;49.678;24.560;2022-07-23T03:11:01;98274.94;;;19.75;69.30
45327;BME280;31062;49.678;24.560;2022-07-23T03:13:46;98275.84;;;19.80;68.99
45327;BME280;31062;49.678;24.560;2022-07-23T03:16:32;98285.16;;;19.84;69.22
45327;BME280;31062;49.678;24.560;2022-07-23T03:19:17;98236.00;;;19.52;68.94
45327;BME280;31062;49.678;24.560;2022-07-23T03:22:03;98133.97;;;18.83;69.40
45327;BME280;31062;49.678;24.560;2022-07-23T03:24:48;98271.75;;;19.83;69.15
45327;BME280;31062;49.678;24.560;2022-07-23T03:27:51;98126.81;;;18.80;69.31
45327;BME280;31062;49.678;24.560;2022-07-23T03:30:36;98271.28;;;19.88;69.06
45327;BME280;31062;49.678;24.560;2022-07-23T03:33:22;98268.63;;;19.92;69.20
45327;BME280;31062;49.678;24.560;2022-07-23T03:36:08;98271.69;;;19.98;69.07
45327;BME280;31062;49.678;24.560;2022-07-23T03:38:58;98144.59;;;19.17;69.03
45327;BME280;31062;49.678;24.560;2022-07-23T03:41:46;98243.06;;;19.86;68.88
45327;BME280;31062;49.678;24.560;2022-07-23T03:44:31;98238.78;;;19.85;69.08
45327;BME280;31062;49.678;24.560;2022-07-23T03:47:17;98206.13;;;19.61;69.47
45327;BME280;31062;49.678;24.560;2022-07-23T03:50:07;98255.19;;;19.91;70.03
45327;BME280;31062;49.678;24.560;2022-07-23T03:52:52;98259.78;;;19.82;70.38
45327;BME280;31062;49.678;24.560;2022-07-23T03:55:39;98215.59;;;19.51;70.96
45327;BME280;31062;49.678;24.560;2022-07-23T03:58:24;98250.53;;;19.80;71.36
45327;BME280;31062;49.678;24.560;2022-07-23T04:01:11;98249.59;;;19.58;71.60
45327;BME280;31062;49.678;24.560;2022-07-23T04:03:57;98230.16;;;19.64;71.75
45327;BME280;31062;49.678;24.560;2022-07-23T04:06:42;98106.41;;;18.79;71.75
45327;BME280;31062;49.678;24.560;2022-07-23T04:09:28;98253.59;;;19.86;71.97
45327;BME280;31062;49.678;24.560;2022-07-23T04:12:14;98228.81;;;19.65;71.88
45327;BME280;31062;49.678;24.560;2022-07-23T04:14:59;98168.38;;;19.32;72.17
45327;BME280;31062;49.678;24.560;2022-07-23T04:17:45;98242.03;;;19.95;71.80
45327;BME280;31062;49.678;24.560;2022-07-23T04:20:34;98100.31;;;19.00;71.70
45327;BME280;31062;49.678;24.560;2022-07-23T04:23:25;98115.19;;;19.21;71.58
45327;BME280;31062;49.678;24.560;2022-07-23T04:26:10;98173.13;;;19.61;71.42
45327;BME280;31062;49.678;24.560;2022-07-23T04:29:03;98246.28;;;20.14;71.78
45327;BME280;31062;49.678;24.560;2022-07-23T04:31:50;98247.09;;;20.17;71.71
45327;BME280;31062;49.678;24.560;2022-07-23T04:34:35;98111.13;;;19.24;72.04
45327;BME280;31062;49.678;24.560;2022-07-23T04:37:21;98227.16;;;20.11;72.01
45327;BME280;31062;49.678;24.560;2022-07-23T04:40:07;98260.56;;;20.36;71.91
45327;BME280;31062;49.678;24.560;2022-07-23T04:42:53;98104.81;;;19.41;72.02
45327;BME280;31062;49.678;24.560;2022-07-23T04:45:39;98068.25;;;19.23;71.99
45327;BME280;31062;49.678;24.560;2022-07-23T04:48:24;98140.66;;;19.93;72.17
45327;BME280;31062;49.678;24.560;2022-07-23T04:51:17;98235.69;;;20.86;71.08
45327;BME280;31062;49.678;24.560;2022-07-23T04:54:03;98257.81;;;21.31;71.24
45327;BME280;31062;49.678;24.560;2022-07-23T04:56:49;98168.59;;;21.00;70.39
45327;BME280;31062;49.678;24.560;2022-07-23T04:59:35;98142.84;;;21.09;69.35
45327;BME280;31062;49.678;24.560;2022-07-23T05:02:22;98109.41;;;21.20;68.64
45327;BME280;31062;49.678;24.560;2022-07-23T05:05:08;98165.91;;;21.87;68.24
45327;BME280;31062;49.678;24.560;2022-07-23T05:07:54;98127.91;;;21.90;66.84
45327;BME280;31062;49.678;24.560;2022-07-23T05:10:39;98159.81;;;22.40;65.51
45327;BME280;31062;49.678;24.560;2022-07-23T05:13:24;98254.44;;;23.36;64.36
45327;BME280;31062;49.678;24.560;2022-07-23T05:16:11;98244.25;;;23.51;63.17
45327;BME280;31062;49.678;24.560;2022-07-23T05:18:57;98255.09;;;23.86;62.60
45327;BME280;31062;49.678;24.560;2022-07-23T05:21:43;98144.53;;;23.25;61.57
45327;BME280;31062;49.678;24.560;2022-07-23T05:24:29;98254.56;;;24.22;61.77
45327;BME280;31062;49.678;24.560;2022-07-23T05:27:15;98117.59;;;23.47;61.37
45327;BME280;31062;49.678;24.560;2022-07-23T05:30:00;98138.59;;;23.68;60.87
45327;BME280;31062;49.678;24.560;2022-07-23T05:32:48;98122.97;;;23.65;60.01
45327;BME280;31062;49.678;24.560;2022-07-23T05:35:35;98128.91;;;23.77;59.90
45327;BME280;31062;49.678;24.560;2022-07-23T05:38:41;98232.88;;;24.64;59.53
45327;BME280;31062;49.678;24.560;2022-07-23T05:41:26;98119.56;;;24.02;59.37
45327;BME280;31062;49.678;24.560;2022-07-23T05:44:12;98235.00;;;24.96;59.08
45327;BME280;31062;49.678;24.560;2022-07-23T05:47:01;98266.66;;;25.18;57.95
45327;BME280;31062;49.678;24.560;2022-07-23T05:49:47;98264.72;;;25.29;58.65
45327;BME280;31062;49.678;24.560;2022-07-23T05:52:45;98259.22;;;25.37;57.58
45327;BME280;31062;49.678;24.560;2022-07-23T05:55:51;98257.06;;;25.35;57.14
45327;BME280;31062;49.678;24.560;2022-07-23T05:58:37;98128.94;;;24.41;57.53
45327;BME280;31062;49.678;24.560;2022-07-23T06:01:22;98124.63;;;24.38;57.22
45327;BME280;31062;49.678;24.560;2022-07-23T06:04:22;98131.00;;;24.38;56.94
45327;BME280;31062;49.678;24.560;2022-07-23T06:07:25;98245.53;;;25.27;57.85
45327;BME280;31062;49.678;24.560;2022-07-23T06:10:11;98115.00;;;24.51;57.45
45327;BME280;31062;49.678;24.560;2022-07-23T06:12:57;98111.56;;;24.57;56.87
45327;BME280;31062;49.678;24.560;2022-07-23T06:15:47;98102.94;;;24.51;56.66
45327;BME280;31062;49.678;24.560;2022-07-23T06:18:33;98108.06;;;24.58;56.40
45327;BME280;31062;49.678;24.560;2022-07-23T06:21:18;98106.84;;;24.69;57.10
45327;BME280;31062;49.678;24.560;2022-07-23T06:24:24;98125.94;;;25.03;56.33
45327;BME280;31062;49.678;24.560;2022-07-23T06:27:11;98203.88;;;25.76;56.83
45327;BME280;31062;49.678;24.560;2022-07-23T06:29:56;98228.59;;;26.11;55.62
45327;BME280;31062;49.678;24.560;2022-07-23T06:32:42;98066.59;;;25.13;55.23
45327;BME280;31062;49.678;24.560;2022-07-23T06:35:27;98099.88;;;25.52;55.46
45327;BME280;31062;49.678;24.560;2022-07-23T06:38:13;98098.72;;;25.68;56.08
45327;BME280;31062;49.678;24.560;2022-07-23T06:41:00;98229.50;;;26.70;54.55
45327;BME280;31062;49.678;24.560;2022-07-23T06:43:45;98109.75;;;25.91;55.34
45327;BME280;31062;49.678;24.560;2022-07-23T06:46:33;98225.44;;;26.85;54.75
45327;BME280;31062;49.678;24.560;2022-07-23T06:49:18;98201.06;;;26.68;54.69
45327;BME280;31062;49.678;24.560;2022-07-23T06:52:04;98228.47;;;26.99;54.47
45327;BME280;31062;49.678;24.560;2022-07-23T06:54:51;98233.56;;;27.07;53.96
45327;BME280;31062;49.678;24.560;2022-07-23T06:57:36;98225.72;;;27.05;53.99
45327;BME280;31062;49.678;24.560;2022-07-23T07:00:23;98092.44;;;26.23;53.92
45327;BME280;31062;49.678;24.560;2022-07-23T07:03:11;98234.53;;;27.28;54.11
45327;BME280;31062;49.678;24.560;2022-07-23T07:05:56;98132.72;;;26.60;54.21
45327;BME280;31062;49.678;24.560;2022-07-23T07:08:42;98102.69;;;26.45;54.54
45327;BME280;31062;49.678;24.560;2022-07-23T07:11:28;98248.19;;;27.41;53.43
45327;BME280;31062;49.678;24.560;2022-07-23T07:14:14;98175.88;;;27.00;54.34
45327;BME280;31062;49.678;24.560;2022-07-23T07:16:59;98227.53;;;27.39;53.60
45327;BME280;31062;49.678;24.560;2022-07-23T07:19:44;98228.41;;;27.51;53.32
45327;BME280;31062;49.678;24.560;2022-07-23T07:22:30;98224.97;;;27.63;53.25
45327;BME280;31062;49.678;24.560;2022-07-23T07:25:15;98189.88;;;27.44;53.04
45327;BME280;31062;49.678;24.560;2022-07-23T07:28:01;98081.84;;;26.86;52.34
45327;BME280;31062;49.678;24.560;2022-07-23T07:30:46;98107.72;;;27.10;52.04
45327;BME280;31062;49.678;24.560;2022-07-23T07:33:31;98186.69;;;27.82;51.70
45327;BME280;31062;49.678;24.560;2022-07-23T07:36:17;98232.63;;;28.23;51.61
45327;BME280;31062;49.678;24.560;2022-07-23T07:39:04;98121.03;;;27.64;50.99
45327;BME280;31062;49.678;24.560;2022-07-23T07:41:50;98225.66;;;28.46;50.53
45327;BME280;31062;49.678;24.560;2022-07-23T07:44:36;98222.19;;;28.60;51.14
45327;BME280;31062;49.678;24.560;2022-07-23T07:47:22;98225.81;;;28.70;50.60
45327;BME280;31062;49.678;24.560;2022-07-23T07:50:07;98231.59;;;28.80;50.49
45327;BME280;31062;49.678;24.560;2022-07-23T07:52:53;98228.78;;;28.91;50.76
45327;BME280;31062;49.678;24.560;2022-07-23T07:55:39;98230.28;;;29.08;50.55
45327;BME280;31062;49.678;24.560;2022-07-23T07:58:24;98221.75;;;29.20;50.81
45327;BME280;31062;49.678;24.560;2022-07-23T08:01:10;98113.03;;;28.49;49.47
45327;BME280;31062;49.678;24.560;2022-07-23T08:03:55;98202.50;;;29.18;49.20
45327;BME280;31062;49.678;24.560;2022-07-23T08:06:41;98224.72;;;29.42;49.00
45327;BME280;31062;49.678;24.560;2022-07-23T08:09:26;98247.59;;;29.52;50.40
45327;BME280;31062;49.678;24.560;2022-07-23T08:12:12;98093.91;;;28.74;49.54
45327;BME280;31062;49.678;24.560;2022-07-23T08:14:57;98112.50;;;28.87;49.54
45327;BME280;31062;49.678;24.560;2022-07-23T08:17:44;98198.34;;;29.60;49.53
45327;BME280;31062;49.678;24.560;2022-07-23T08:20:30;98103.97;;;28.93;48.89
45327;BME280;31062;49.678;24.560;2022-07-23T08:23:15;98224.06;;;29.86;50.18
45327;BME280;31062;49.678;24.560;2022-07-23T08:26:04;98094.75;;;29.13;49.08
45327;BME280;31062;49.678;24.560;2022-07-23T08:28:50;98088.31;;;29.14;48.64
45327;BME280;31062;49.678;24.560;2022-07-23T08:31:35;98100.47;;;29.23;48.83
45327;BME280;31062;49.678;24.560;2022-07-23T08:34:20;98103.34;;;29.33;47.66
45327;BME280;31062;49.678;24.560;2022-07-23T08:37:06;98160.50;;;29.82;47.85
45327;BME280;31062;49.678;24.560;2022-07-23T08:39:51;98173.34;;;30.09;48.09
45327;BME280;31062;49.678;24.560;2022-07-23T08:42:37;98219.06;;;30.48;47.95
45327;BME280;31062;49.678;24.560;2022-07-23T08:45:24;98099.78;;;29.69;47.04
45327;BME280;31062;49.678;24.560;2022-07-23T08:48:20;98226.22;;;30.55;47.39
45327;BME280;31062;49.678;24.560;2022-07-23T08:51:06;98113.34;;;29.93;47.41
45327;BME280;31062;49.678;24.560;2022-07-23T08:53:52;98204.75;;;30.62;47.05
45327;BME280;31062;49.678;24.560;2022-07-23T08:56:38;98212.59;;;30.67;47.19
45327;BME280;31062;49.678;24.560;2022-07-23T08:59:24;98188.97;;;30.73;47.13
45327;BME280;31062;49.678;24.560;2022-07-23T09:02:12;98071.94;;;29.96;46.83
45327;BME280;31062;49.678;24.560;2022-07-23T09:04:58;98149.69;;;30.51;45.69
45327;BME280;31062;49.678;24.560;2022-07-23T09:08:13;98046.22;;;29.78;44.44
45327;BME280;31062;49.678;24.560;2022-07-23T09:11:02;98136.13;;;30.41;45.93
45327;BME280;31062;49.678;24.560;2022-07-23T09:13:53;98159.00;;;30.43;44.72
45327;BME280;31062;49.678;24.560;2022-07-23T09:16:38;98201.81;;;30.82;45.00
45327;BME280;31062;49.678;24.560;2022-07-23T09:19:27;98049.06;;;29.80;45.81
45327;BME280;31062;49.678;24.560;2022-07-23T09:22:34;98208.91;;;30.93;46.34
45327;BME280;31062;49.678;24.560;2022-07-23T09:25:20;98090.44;;;30.19;46.93
45327;BME280;31062;49.678;24.560;2022-07-23T09:28:05;98205.31;;;31.07;46.13
45327;BME280;31062;49.678;24.560;2022-07-23T09:30:52;98087.53;;;30.37;44.68
45327;BME280;31062;49.678;24.560;2022-07-23T09:33:38;98193.78;;;31.27;47.00
45327;BME280;31062;49.678;24.560;2022-07-23T09:36:28;98175.88;;;31.22;46.39
45327;BME280;31062;49.678;24.560;2022-07-23T09:39:15;98088.84;;;30.71;44.19
45327;BME280;31062;49.678;24.560;2022-07-23T09:42:18;98138.69;;;31.16;42.39
45327;BME280;31062;49.678;24.560;2022-07-23T09:45:10;98044.63;;;30.50;44.29
45327;BME280;31062;49.678;24.560;2022-07-23T09:48:26;98187.13;;;31.63;43.11
45327;BME280;31062;49.678;24.560;2022-07-23T09:51:11;98075.88;;;30.92;43.59
45327;BME280;31062;49.678;24.560;2022-07-23T09:53:58;98120.78;;;31.20;43.93
45327;BME280;31062;49.678;24.560;2022-07-23T09:56:44;98096.50;;;31.13;43.01
45327;BME280;31062;49.678;24.560;2022-07-23T09:59:34;98063.63;;;31.02;43.63
45327;BME280;31062;49.678;24.560;2022-07-23T10:02:20;98177.59;;;31.89;42.47
45327;BME280;31062;49.678;24.560;2022-07-23T10:05:31;98178.31;;;31.93;42.14
45327;BME280;31062;49.678;24.560;2022-07-23T10:08:41;98161.91;;;31.82;42.10
45327;BME280;31062;49.678;24.560;2022-07-23T10:12:11;98163.91;;;31.99;42.64
45327;BME280;31062;49.678;24.560;2022-07-23T10:15:15;98168.84;;;32.07;43.07
45327;BME280;31062;49.678;24.560;2022-07-23T10:18:01;98171.69;;;32.13;42.46
45327;BME280;31062;49.678;24.560;2022-07-23T10:20:47;98170.22;;;32.16;42.38
45327;BME280;31062;49.678;24.560;2022-07-23T10:23:51;98155.13;;;32.18;42.05
45327;BME280;31062;49.678;24.560;2022-07-23T10:30:03;98026.78;;;31.47;44.44
45327;BME280;31062;49.678;24.560;2022-07-23T10:33:12;98153.56;;;32.35;43.99
45327;BME280;31062;49.678;24.560;2022-07-23T10:39:15;98150.44;;;32.55;41.26
45327;BME280;31062;49.678;24.560;2022-07-23T10:42:15;98123.25;;;32.52;39.85
45327;BME280;31062;49.678;24.560;2022-07-23T10:45:00;98016.38;;;31.88;39.60
45327;BME280;31062;49.678;24.560;2022-07-23T10:47:46;98131.59;;;32.74;39.76
45327;BME280;31062;49.678;24.560;2022-07-23T10:50:31;98123.00;;;32.72;40.43
45327;BME280;31062;49.678;24.560;2022-07-23T10:53:19;98014.22;;;31.91;40.42
45327;BME280;31062;49.678;24.560;2022-07-23T10:56:05;98010.69;;;31.84;39.93
45327;BME280;31062;49.678;24.560;2022-07-23T10:58:50;98003.59;;;31.79;39.58
45327;BME280;31062;49.678;24.560;2022-07-23T11:01:39;98123.06;;;32.68;40.85
45327;BME280;31062;49.678;24.560;2022-07-23T11:04:50;98124.44;;;32.73;40.00
45327;BME280;31062;49.678;24.560;2022-07-23T11:13:48;98070.47;;;32.25;39.17
45327;BME280;31062;49.678;24.560;2022-07-23T11:16:46;98123.31;;;32.44;38.71
45327;BME280;31062;49.678;24.560;2022-07-23T11:22:58;98120.72;;;32.18;40.21
45327;BME280;31062;49.678;24.560;2022-07-23T11:25:44;98003.31;;;31.30;41.52
45327;BME280;31062;49.678;24.560;2022-07-23T11:28:31;98114.41;;;32.05;42.27
45327;BME280;31062;49.678;24.560;2022-07-23T11:31:19;98113.00;;;32.00;42.09
45327;BME280;31062;49.678;24.560;2022-07-23T11:34:39;98112.38;;;31.93;43.60
45327;BME280;31062;49.678;24.560;2022-07-23T11:37:36;98016.97;;;31.26;43.50
45327;BME280;31062;49.678;24.560;2022-07-23T11:40:22;98008.31;;;31.34;43.07
45327;BME280;31062;49.678;24.560;2022-07-23T11:43:09;98099.31;;;32.07;42.43
45327;BME280;31062;49.678;24.560;2022-07-23T11:45:59;98099.28;;;32.11;41.69
45327;BME280;31062;49.678;24.560;2022-07-23T11:48:45;98070.69;;;32.02;42.80
45327;BME280;31062;49.678;24.560;2022-07-23T11:51:30;97978.84;;;31.45;42.65
45327;BME280;31062;49.678;24.560;2022-07-23T11:54:18;98088.97;;;32.36;43.24
45327;BME280;31062;49.678;24.560;2022-07-23T11:57:03;98070.47;;;32.27;41.28
45327;BME280;31062;49.678;24.560;2022-07-23T11:59:52;97970.84;;;31.58;41.91
45327;BME280;31062;49.678;24.560;2022-07-23T12:02:43;97974.41;;;31.60;40.94
45327;BME280;31062;49.678;24.560;2022-07-23T12:05:31;97976.50;;;31.64;40.98
45327;BME280;31062;49.678;24.560;2022-07-23T12:08:17;98063.88;;;32.38;41.87
45327;BME280;31062;49.678;24.560;2022-07-23T12:11:05;97964.22;;;31.76;40.84
45327;BME280;31062;49.678;24.560;2022-07-23T12:13:57;97974.16;;;31.85;41.15
45327;BME280;31062;49.678;24.560;2022-07-23T12:16:43;97957.78;;;31.75;42.13
45327;BME280;31062;49.678;24.560;2022-07-23T12:19:29;98064.41;;;32.53;40.18
45327;BME280;31062;49.678;24.560;2022-07-23T12:22:15;97954.94;;;31.71;40.29
45327;BME280;31062;49.678;24.560;2022-07-23T12:25:06;98077.28;;;32.56;39.89
45327;BME280;31062;49.678;24.560;2022-07-23T12:28:08;97950.59;;;31.76;42.39
45327;BME280;31062;49.678;24.560;2022-07-23T12:30:56;98052.84;;;32.59;39.89
45327;BME280;31062;49.678;24.560;2022-07-23T12:33:41;98033.53;;;32.54;39.81
45327;BME280;31062;49.678;24.560;2022-07-23T12:36:37;98052.69;;;32.71;38.75
45327;BME280;31062;49.678;24.560;2022-07-23T12:39:31;98062.59;;;32.83;37.46
45327;BME280;31062;49.678;24.560;2022-07-23T12:42:17;98022.94;;;32.42;38.21
45327;BME280;31062;49.678;24.560;2022-07-23T12:45:06;98045.41;;;32.80;38.13
45327;BME280;31062;49.678;24.560;2022-07-23T12:47:57;98049.63;;;32.88;40.12
45327;BME280;31062;49.678;24.560;2022-07-23T12:50:49;97930.19;;;32.05;39.30
45327;BME280;31062;49.678;24.560;2022-07-23T12:53:41;97953.66;;;32.21;38.76
45327;BME280;31062;49.678;24.560;2022-07-23T12:56:30;98053.91;;;32.89;39.48
45327;BME280;31062;49.678;24.560;2022-07-23T12:59:16;98064.63;;;32.90;38.68
45327;BME280;31062;49.678;24.560;2022-07-23T13:02:03;98053.88;;;32.91;39.10
45327;BME280;31062;49.678;24.560;2022-07-23T13:04:48;97958.59;;;32.29;38.58
45327;BME280;31062;49.678;24.560;2022-07-23T13:07:34;97951.44;;;32.26;37.75
45327;BME280;31062;49.678;24.560;2022-07-23T13:10:20;97922.28;;;32.07;38.22
45327;BME280;31062;49.678;24.560;2022-07-23T13:13:10;97917.31;;;32.03;38.69
45327;BME280;31062;49.678;24.560;2022-07-23T13:16:01;98035.28;;;32.86;38.31
45327;BME280;31062;49.678;24.560;2022-07-23T13:18:55;97944.44;;;32.15;38.14
45327;BME280;31062;49.678;24.560;2022-07-23T13:21:44;97914.53;;;31.97;39.76
45327;BME280;31062;49.678;24.560;2022-07-23T13:24:30;98025.25;;;32.85;38.81
45327;BME280;31062;49.678;24.560;2022-07-23T13:27:16;98033.19;;;32.82;39.39
45327;BME280;31062;49.678;24.560;2022-07-23T13:30:01;97915.97;;;31.96;36.87
45327;BME280;31062;49.678;24.560;2022-07-23T13:32:48;98035.44;;;32.75;37.50
45327;BME280;31062;49.678;24.560;2022-07-23T13:35:35;98009.78;;;32.61;39.09
45327;BME280;31062;49.678;24.560;2022-07-23T13:38:21;97946.56;;;32.12;39.35
45327;BME280;31062;49.678;24.560;2022-07-23T13:41:07;98033.19;;;32.82;39.75
45327;BME280;31062;49.678;24.560;2022-07-23T13:43:56;98026.66;;;32.86;39.40
45327;BME280;31062;49.678;24.560;2022-07-23T13:46:43;98025.19;;;32.89;39.28
45327;BME280;31062;49.678;24.560;2022-07-23T13:49:29;98011.59;;;32.87;38.96
45327;BME280;31062;49.678;24.560;2022-07-23T13:52:14;97925.69;;;32.22;40.11
45327;BME280;31062;49.678;24.560;2022-07-23T13:55:03;97925.63;;;32.26;40.16
45327;BME280;31062;49.678;24.560;2022-07-23T13:57:49;98024.44;;;32.92;39.44
45327;BME280;31062;49.678;24.560;2022-07-23T14:00:38;97990.97;;;32.72;38.50
45327;BME280;31062;49.678;24.560;2022-07-23T14:03:37;98004.34;;;32.90;38.72
45327;BME280;31062;49.678;24.560;2022-07-23T14:06:23;97995.25;;;32.75;38.72
45327;BME280;31062;49.678;24.560;2022-07-23T14:09:17;97996.50;;;32.89;38.92
45327;BME280;31062;49.678;24.560;2022-07-23T14:12:03;97887.09;;;32.15;38.05
45327;BME280;31062;49.678;24.560;2022-07-23T14:14:49;97997.78;;;32.98;38.51
45327;BME280;31062;49.678;24.560;2022-07-23T14:17:37;97884.19;;;32.17;38.56
45327;BME280;31062;49.678;24.560;2022-07-23T14:20:24;98001.38;;;32.96;38.46
45327;BME280;31062;49.678;24.560;2022-07-23T14:23:10;97874.94;;;32.10;38.89
45327;BME280;31062;49.678;24.560;2022-07-23T14:25:58;97989.97;;;32.92;38.58
45327;BME280;31062;49.678;24.560;2022-07-23T14:28:44;97993.59;;;32.91;37.70
45327;BME280;31062;49.678;24.560;2022-07-23T14:31:33;97976.53;;;32.78;37.91
45327;BME280;31062;49.678;24.560;2022-07-23T14:34:19;97976.44;;;32.87;38.37
45327;BME280;31062;49.678;24.560;2022-07-23T14:37:12;97883.44;;;32.18;38.05
45327;BME280;31062;49.678;24.560;2022-07-23T14:39:59;97956.06;;;32.54;36.43
45327;BME280;31062;49.678;24.560;2022-07-23T14:42:46;97975.06;;;32.81;37.79
45327;BME280;31062;49.678;24.560;2022-07-23T14:45:31;97977.91;;;32.83;38.03
45327;BME280;31062;49.678;24.560;2022-07-23T14:48:18;97955.16;;;32.69;39.05
45327;BME280;31062;49.678;24.560;2022-07-23T14:51:06;97968.63;;;32.81;38.47
45327;BME280;31062;49.678;24.560;2022-07-23T14:53:51;97972.25;;;32.77;38.65
45327;BME280;31062;49.678;24.560;2022-07-23T14:56:37;97965.03;;;32.80;38.35